Time;durP1;ratioP1;P1;durP2;ratioP2;P2;SDS_P1;SDS_P2;PMS_P1;PMS_P2;Temp;Humidity;BMP_temperature;BMP_pressure;BME280_temperature;BME280_humidity;BME280_pressure;Samples;Min_cycle;Max_cycle;Signal;HPM_P1;HPM_P2
2021/08/14 00:02:16;;;;;;;17.90;4.03;;;;;;;15.54;89.97;101161.66;4808933;29;20114;-80
2021/08/14 00:04:41;;;;;;;12.88;2.95;;;;;;;15.53;89.94;101166.25;4828047;29;20087;-78
2021/08/14 00:07:06;;;;;;;13.00;3.13;;;;;;;15.60;89.47;101179.75;4827210;29;20090;-80
2021/08/14 00:09:35;;;;;;;15.77;3.13;;;;;;;15.56;90.01;101171.19;4840963;29;20630;-79
2021/08/14 00:12:03;;;;;;;14.85;3.50;;;;;;;15.54;89.77;101169.78;4842331;29;20102;-79
2021/08/14 00:14:29;;;;;;;19.55;2.95;;;;;;;15.58;90.24;101171.81;4842206;29;20034;-79
2021/08/14 00:16:54;;;;;;;14.68;3.20;;;;;;;15.55;90.08;101163.31;4839610;29;20495;-78
2021/08/14 00:19:20;;;;;;;15.25;3.25;;;;;;;15.61;89.47;101167.84;4843331;29;20034;-80
2021/08/14 00:21:45;;;;;;;14.23;3.58;;;;;;;15.59;89.20;101167.22;4841306;29;20049;-78
2021/08/14 00:24:10;;;;;;;11.45;3.47;;;;;;;15.61;89.10;101170.56;4854546;29;20037;-80
2021/08/14 00:26:36;;;;;;;16.35;3.50;;;;;;;15.63;89.07;101182.84;4861069;29;20041;-80
2021/08/14 00:29:02;;;;;;;15.23;2.83;;;;;;;15.61;89.10;101165.97;4848610;29;20057;-80
2021/08/14 00:31:27;;;;;;;17.05;3.30;;;;;;;15.58;89.39;101169.13;4842134;29;20029;-80
2021/08/14 00:33:53;;;;;;;18.50;3.35;;;;;;;15.59;89.39;101168.03;4825562;29;20049;-79
2021/08/14 00:36:18;;;;;;;19.00;3.78;;;;;;;15.60;89.12;101179.75;4850487;29;20548;-78
2021/08/14 00:38:43;;;;;;;19.30;3.10;;;;;;;15.55;88.54;101166.84;4844557;29;20034;-79
2021/08/14 00:41:09;;;;;;;16.33;4.00;;;;;;;15.59;88.53;101178.06;4851212;29;20410;-78
2021/08/14 00:43:34;;;;;;;14.00;3.60;;;;;;;15.56;88.80;101179.34;4842475;29;20044;-78
2021/08/14 00:46:00;;;;;;;21.40;3.60;;;;;;;15.47;89.12;101162.53;4841981;29;20106;-78
2021/08/14 00:48:26;;;;;;;18.13;3.85;;;;;;;15.51;89.41;101166.47;4847528;29;20033;-78
2021/08/14 00:50:52;;;;;;;18.95;3.88;;;;;;;15.41;89.18;101157.19;4864465;29;20029;-79
2021/08/14 00:53:19;;;;;;;17.75;3.38;;;;;;;15.41;89.00;101158.00;4856877;29;20030;-78
2021/08/14 00:55:45;;;;;;;14.13;3.00;;;;;;;15.38;89.13;101163.88;4844874;29;20025;-78
2021/08/14 00:58:12;;;;;;;15.38;3.33;;;;;;;15.35;88.84;101161.59;4845565;29;20122;-78
2021/08/14 01:00:38;;;;;;;14.65;3.50;;;;;;;15.38;89.09;101163.88;4847173;29;20041;-78
2021/08/14 01:03:03;;;;;;;14.73;3.45;;;;;;;15.31;88.94;101157.69;4863591;29;20040;-80
2021/08/14 01:05:29;;;;;;;15.38;2.80;;;;;;;15.27;87.68;101154.59;4861309;29;20030;-78
2021/08/14 01:07:54;;;;;;;14.52;3.40;;;;;;;15.29;86.72;101162.47;4851252;29;20029;-78
2021/08/14 01:10:21;;;;;;;13.50;2.95;;;;;;;15.24;86.16;101148.78;4856939;29;20030;-78
2021/08/14 01:12:49;;;;;;;16.20;2.80;;;;;;;15.27;86.25;101159.19;4828760;29;20065;-78
2021/08/14 01:15:15;;;;;;;11.15;2.90;;;;;;;15.32;86.72;101144.94;4843207;29;20361;-78
2021/08/14 01:17:40;;;;;;;16.23;2.90;;;;;;;15.34;86.09;101142.84;4846007;29;20026;-78
2021/08/14 01:20:07;;;;;;;13.13;2.67;;;;;;;15.34;86.58;101140.16;4845409;29;20030;-78
2021/08/14 01:22:34;;;;;;;16.27;3.10;;;;;;;15.38;86.46;101144.88;4845940;29;20033;-79
2021/08/14 01:24:59;;;;;;;13.25;3.38;;;;;;;15.34;86.92;101140.97;4844081;29;20089;-78
2021/08/14 01:27:25;;;;;;;11.50;3.00;;;;;;;15.35;87.14;101139.91;4844679;29;20034;-78
2021/08/14 01:29:50;;;;;;;14.63;3.28;;;;;;;15.32;87.22;101132.22;4844290;29;20365;-79
2021/08/14 01:32:16;;;;;;;13.52;2.63;;;;;;;15.33;86.79;101133.91;4842864;29;20045;-79
2021/08/14 01:34:42;;;;;;;15.85;2.95;;;;;;;15.31;86.79;101122.44;4846780;29;20065;-78
2021/08/14 01:37:08;;;;;;;19.02;3.33;;;;;;;15.37;86.17;101126.97;4841444;29;20433;-79
2021/08/14 01:39:34;;;;;;;16.65;3.33;;;;;;;15.42;86.70;101129.81;4843008;29;20033;-79
2021/08/14 01:42:02;;;;;;;14.38;2.92;;;;;;;15.42;86.96;101118.16;4847735;29;20049;-78
2021/08/14 01:44:29;;;;;;;15.57;3.20;;;;;;;15.47;86.31;101121.88;4844434;29;20476;-78
2021/08/14 01:46:54;;;;;;;15.98;3.28;;;;;;;15.49;86.60;101121.63;4843439;29;20033;-78
2021/08/14 01:49:20;;;;;;;15.68;3.65;;;;;;;15.42;86.99;101108.13;4844296;29;20110;-78
2021/08/14 01:51:46;;;;;;;15.85;3.15;;;;;;;15.40;87.48;101115.69;4844014;29;20022;-78
2021/08/14 01:54:13;;;;;;;20.23;3.05;;;;;;;15.36;88.33;101102.78;4845075;29;20065;-78
2021/08/14 01:56:39;;;;;;;15.88;3.38;;;;;;;15.30;88.30;101092.81;4844916;29;20353;-78
2021/08/14 01:59:05;;;;;;;23.38;3.30;;;;;;;15.29;88.48;101100.13;4845163;29;20117;-77
2021/08/14 02:01:32;;;;;;;19.75;3.65;;;;;;;15.24;89.09;101103.50;4843868;29;20037;-78
2021/08/14 02:03:58;;;;;;;16.13;3.55;;;;;;;15.23;89.26;101099.16;4860557;29;20020;-78
2021/08/14 02:06:26;;;;;;;17.33;3.58;;;;;;;15.22;89.00;101094.75;4845393;29;20034;-80
2021/08/14 02:08:53;;;;;;;15.07;2.97;;;;;;;15.18;88.91;101087.31;4843468;29;20030;-79
2021/08/14 02:11:25;;;;;;;14.23;3.92;;;;;;;15.16;89.01;101084.81;4858111;29;20073;-78
2021/08/14 02:13:52;;;;;;;18.17;3.78;;;;;;;15.18;89.55;101090.03;4861676;29;20092;-78
2021/08/14 02:16:18;;;;;;;17.98;3.53;;;;;;;15.12;90.03;101089.03;4854539;29;20483;-78
2021/08/14 02:18:44;;;;;;;24.63;3.97;;;;;;;15.12;90.44;101083.59;4845126;29;20034;-80
2021/08/14 02:21:10;;;;;;;20.02;3.67;;;;;;;15.14;90.94;101088.81;4844159;29;20038;-78
2021/08/14 02:23:36;;;;;;;21.02;3.50;;;;;;;15.11;91.08;101090.09;4858786;29;20038;-80
2021/08/14 02:26:02;;;;;;;17.20;3.47;;;;;;;15.06;91.95;101078.25;4855267;29;20125;-78
2021/08/14 02:28:28;;;;;;;20.38;3.70;;;;;;;15.15;91.87;101091.28;4845230;29;20022;-79
2021/08/14 02:30:54;;;;;;;16.75;3.17;;;;;;;15.17;91.45;101082.94;4844468;29;20049;-78
2021/08/14 02:33:20;;;;;;;17.70;3.38;;;;;;;15.11;91.34;101078.41;4844981;29;20379;-78
2021/08/14 02:35:45;;;;;;;15.32;2.72;;;;;;;15.24;91.33;101086.44;4848014;29;20033;-78
2021/08/14 02:38:11;;;;;;;17.98;3.88;;;;;;;15.26;91.27;101092.44;4862115;29;20057;-78
2021/08/14 02:40:36;;;;;;;15.68;3.13;;;;;;;15.27;91.09;101088.69;4838473;29;20178;-78
2021/08/14 02:43:03;;;;;;;21.45;3.88;;;;;;;15.33;90.94;101086.94;4829149;29;20038;-78
2021/08/14 02:45:29;;;;;;;20.77;3.92;;;;;;;15.40;91.04;101093.16;4842504;29;20064;-79
2021/08/14 02:47:56;;;;;;;21.13;3.53;;;;;;;15.41;91.44;101090.22;4843684;29;20060;-78
2021/08/14 02:50:22;;;;;;;20.10;3.35;;;;;;;15.44;92.04;101088.94;4844277;29;20022;-78
2021/08/14 02:52:48;;;;;;;23.98;4.05;;;;;;;15.37;92.91;101099.03;4845010;29;20109;-78
2021/08/14 02:55:13;;;;;;;21.90;4.15;;;;;;;15.24;93.42;101095.38;4842902;29;20122;-78
2021/08/14 02:57:39;;;;;;;19.55;4.13;;;;;;;15.09;94.80;101069.66;4844297;29;20457;-78
2021/08/14 03:00:05;;;;;;;26.33;4.35;;;;;;;15.07;95.13;101069.91;4842542;29;20060;-78
2021/08/14 03:02:30;;;;;;;24.75;4.22;;;;;;;15.00;95.86;101083.50;4846190;29;20034;-78
2021/08/14 03:04:56;;;;;;;27.58;4.65;;;;;;;14.96;96.25;101076.03;4845028;29;20033;-77
2021/08/14 03:07:21;;;;;;;22.33;4.30;;;;;;;15.00;96.62;101075.38;4855756;29;20030;-78
2021/08/14 03:09:47;;;;;;;23.52;4.30;;;;;;;15.02;96.71;101077.84;4853631;29;20127;-77
2021/08/14 03:12:12;;;;;;;27.23;4.85;;;;;;;15.03;97.14;101074.09;4846531;29;20049;-78
2021/08/14 03:14:38;;;;;;;27.58;4.68;;;;;;;15.00;96.96;101072.69;4844263;29;20037;-78
2021/08/14 03:17:05;;;;;;;28.25;5.05;;;;;;;14.98;97.08;101060.38;4843706;29;20062;-78
2021/08/14 03:19:31;;;;;;;25.60;5.07;;;;;;;14.97;97.02;101054.16;4810020;29;20538;-78
2021/08/14 03:21:56;;;;;;;27.73;4.40;;;;;;;15.00;97.45;101061.84;4842776;29;20361;-78
2021/08/14 03:24:23;;;;;;;29.92;4.95;;;;;;;15.03;96.96;101066.81;4841698;29;20030;-78
2021/08/14 03:26:48;;;;;;;24.05;4.70;;;;;;;15.02;97.18;101058.88;4823558;29;20042;-78
2021/08/14 03:29:14;;;;;;;28.23;4.30;;;;;;;15.00;97.25;101051.00;4839640;29;20103;-78
2021/08/14 03:31:39;;;;;;;26.45;4.60;;;;;;;15.08;97.72;101052.59;4838701;29;20046;-79
2021/08/14 03:34:05;;;;;;;26.95;4.72;;;;;;;15.09;97.21;101062.38;4839794;29;20054;-79
2021/08/14 03:36:31;;;;;;;29.40;5.05;;;;;;;15.06;97.53;101048.44;4835322;29;20037;-79
2021/08/14 03:38:56;;;;;;;22.13;4.22;;;;;;;15.17;97.22;101066.69;4841884;29;20029;-78
2021/08/14 03:41:21;;;;;;;22.25;3.60;;;;;;;15.12;96.55;101070.06;4852611;29;20026;-78
2021/08/14 03:43:47;;;;;;;19.92;4.13;;;;;;;15.08;95.62;101070.72;4861658;29;20069;-77
2021/08/14 03:46:12;;;;;;;22.95;4.70;;;;;;;14.96;95.48;101089.56;4860031;29;20040;-78
2021/08/14 03:48:38;;;;;;;26.95;4.13;;;;;;;14.89;95.80;101080.69;4861710;29;20029;-78
2021/08/14 03:51:03;;;;;;;23.45;4.05;;;;;;;14.86;96.44;101081.94;4853335;29;20062;-79
2021/08/14 03:53:29;;;;;;;17.25;2.83;;;;;;;14.79;96.01;101079.28;4842025;29;20040;-78
2021/08/14 03:55:55;;;;;;;16.98;3.30;;;;;;;14.60;95.72;101072.13;4840619;29;20450;-78
2021/08/14 03:58:20;;;;;;;15.63;2.50;;;;;;;14.47;95.20;101064.91;4841688;29;20069;-78
2021/08/14 04:00:45;;;;;;;13.38;2.90;;;;;;;14.36;95.26;101064.78;4839856;29;20113;-79
2021/08/14 04:03:11;;;;;;;12.38;3.00;;;;;;;14.31;95.51;101054.59;4842790;29;20072;-79
2021/08/14 04:05:36;;;;;;;14.45;3.20;;;;;;;14.26;95.61;101049.00;4840831;29;20036;-78
2021/08/14 04:08:02;;;;;;;18.48;3.60;;;;;;;14.22;96.12;101042.38;4826168;29;20053;-78
2021/08/14 04:10:27;;;;;;;23.98;4.47;;;;;;;14.25;96.27;101042.78;4841597;29;20068;-78
2021/08/14 04:12:53;;;;;;;29.48;3.90;;;;;;;14.29;96.63;101037.75;4841195;29;20081;-78
2021/08/14 04:15:18;;;;;;;25.42;4.60;;;;;;;14.32;97.19;101031.91;4839733;29;20094;-79
2021/08/14 04:17:44;;;;;;;21.00;3.80;;;;;;;14.42;97.57;101034.94;4841844;29;20034;-79
2021/08/14 04:20:10;;;;;;;23.10;4.47;;;;;;;14.49;97.67;101041.16;4841141;29;20543;-78
2021/08/14 04:22:36;;;;;;;18.08;3.13;;;;;;;14.39;97.34;101027.25;4841774;29;20121;-78
2021/08/14 04:25:03;;;;;;;20.73;4.00;;;;;;;14.45;97.94;101026.38;4844801;29;20137;-79
2021/08/14 04:27:28;;;;;;;24.13;4.30;;;;;;;14.49;97.52;101026.78;4844022;29;20057;-79
2021/08/14 04:29:53;;;;;;;21.40;4.28;;;;;;;14.54;98.00;101032.41;4846876;29;20034;-78
2021/08/14 04:32:19;;;;;;;26.52;4.53;;;;;;;14.49;97.97;101027.59;4814481;29;20038;-78
2021/08/14 04:34:44;;;;;;;22.17;3.85;;;;;;;14.60;98.21;101034.22;4847754;29;20140;-78
2021/08/14 04:37:11;;;;;;;28.27;4.45;;;;;;;14.61;97.95;101030.47;4864844;29;20037;-78
2021/08/14 04:39:36;;;;;;;23.58;4.57;;;;;;;14.67;98.10;101028.75;4858117;29;20126;-79
2021/08/14 04:42:02;;;;;;;29.83;4.75;;;;;;;14.72;98.11;101032.47;4846908;29;20121;-79
2021/08/14 04:44:27;;;;;;;21.92;3.97;;;;;;;14.79;97.76;101029.69;4845233;29;20038;-78
2021/08/14 04:46:52;;;;;;;21.50;4.05;;;;;;;14.82;97.13;101036.56;4846309;29;20045;-78
2021/08/14 04:49:18;;;;;;;21.45;3.28;;;;;;;14.87;97.17;101045.69;4831364;29;20036;-78
2021/08/14 04:51:43;;;;;;;18.08;3.17;;;;;;;14.83;96.57;101049.88;4848095;29;20029;-78
2021/08/14 04:54:08;;;;;;;16.27;3.13;;;;;;;14.76;96.47;101058.06;4864007;29;20030;-79
2021/08/14 04:56:34;;;;;;;16.60;3.53;;;;;;;14.71;96.26;101048.94;4844570;29;20037;-78
2021/08/14 04:59:00;;;;;;;21.13;3.75;;;;;;;14.66;96.10;101057.72;4855552;29;20080;-78
2021/08/14 05:01:25;;;;;;;23.27;3.63;;;;;;;14.59;96.35;101056.94;4852458;29;20337;-78
2021/08/14 05:03:51;;;;;;;21.13;3.60;;;;;;;14.52;96.52;101042.63;4863113;29;20061;-78
2021/08/14 05:06:16;;;;;;;24.35;3.67;;;;;;;14.51;96.47;101047.22;4856180;29;20116;-79
2021/08/14 05:08:42;;;;;;;21.33;3.50;;;;;;;14.54;96.33;101038.66;4845773;29;20426;-78
2021/08/14 05:11:07;;;;;;;26.95;4.78;;;;;;;14.64;96.67;101032.75;4844604;29;20034;-78
2021/08/14 05:13:32;;;;;;;20.65;3.95;;;;;;;14.73;97.27;101033.28;4845273;29;20478;-79
2021/08/14 05:15:58;;;;;;;26.35;4.07;;;;;;;14.80;97.24;101032.19;4841009;29;20124;-78
2021/08/14 05:18:23;;;;;;;22.88;4.55;;;;;;;14.89;97.72;101032.72;4827270;29;20381;-78
2021/08/14 05:20:49;;;;;;;31.30;4.97;;;;;;;15.06;97.43;101034.88;4821142;29;20046;-78
2021/08/14 05:23:14;;;;;;;29.42;4.30;;;;;;;15.25;97.34;101042.81;4843414;29;20485;-78
2021/08/14 05:25:40;;;;;;;21.08;4.28;;;;;;;15.50;97.17;101040.06;4844198;29;20065;-77
2021/08/14 05:28:05;;;;;;;30.92;5.40;;;;;;;15.60;97.17;101044.13;4844778;29;20034;-79
2021/08/14 05:30:31;;;;;;;29.63;4.40;;;;;;;15.60;97.88;101034.09;4810147;29;20098;-78
2021/08/14 05:32:56;;;;;;;25.88;4.95;;;;;;;15.65;97.87;101039.66;4844363;29;20049;-78
2021/08/14 05:35:22;;;;;;;27.83;4.75;;;;;;;15.69;98.01;101042.78;4842525;29;20058;-79
2021/08/14 05:37:47;;;;;;;25.10;5.30;;;;;;;15.67;97.42;101037.59;4844251;29;20120;-78
2021/08/14 05:40:14;;;;;;;23.23;4.20;;;;;;;15.68;97.29;101047.38;4842972;29;20483;-78
2021/08/14 05:42:39;;;;;;;15.77;3.20;;;;;;;15.65;96.67;101036.13;4844083;29;20045;-78
2021/08/14 05:45:06;;;;;;;20.40;4.07;;;;;;;15.57;96.50;101041.88;4841724;29;20026;-80
2021/08/14 05:47:31;;;;;;;14.13;3.05;;;;;;;15.41;95.33;101043.28;4843331;29;20038;-78
2021/08/14 05:49:57;;;;;;;16.15;3.13;;;;;;;15.28;95.51;101039.66;4840692;29;20042;-78
2021/08/14 05:52:23;;;;;;;19.85;3.10;;;;;;;15.21;95.75;101033.47;4840810;29;20034;-78
2021/08/14 05:54:49;;;;;;;17.55;3.10;;;;;;;15.18;95.85;101035.81;4841327;29;20026;-78
2021/08/14 05:57:14;;;;;;;19.27;3.22;;;;;;;15.13;96.05;101032.94;4843305;29;20037;-78
2021/08/14 05:59:40;;;;;;;16.33;3.10;;;;;;;15.16;95.94;101043.31;4843680;29;20090;-79
2021/08/14 06:02:05;;;;;;;15.68;2.70;;;;;;;15.14;95.58;101032.72;4841803;29;20167;-78
2021/08/14 06:04:31;;;;;;;17.98;3.13;;;;;;;15.12;95.17;101023.97;4843697;29;21469;-78
2021/08/14 06:06:56;;;;;;;17.52;3.00;;;;;;;15.12;95.50;101020.44;4843987;29;20045;-78
2021/08/14 06:09:22;;;;;;;13.70;3.22;;;;;;;15.12;94.88;101018.56;4844635;29;20022;-78
2021/08/14 06:11:47;;;;;;;17.25;2.55;;;;;;;15.14;95.15;101010.22;4843184;29;20046;-79
2021/08/14 06:14:12;;;;;;;17.05;2.70;;;;;;;15.13;94.78;101012.09;4834871;29;20049;-79
2021/08/14 06:16:39;;;;;;;14.60;2.90;;;;;;;15.13;94.76;101006.69;4843929;29;20078;-78
2021/08/14 06:19:05;;;;;;;13.80;3.05;;;;;;;15.16;95.15;101010.78;4839018;29;20062;-80
2021/08/14 06:21:30;;;;;;;16.10;3.17;;;;;;;15.20;95.21;101025.59;4849726;29;20037;-78
2021/08/14 06:23:56;;;;;;;15.13;2.80;;;;;;;15.25;95.51;101037.38;4848562;29;20122;-79
2021/08/14 06:26:21;;;;;;;17.25;3.08;;;;;;;15.22;95.71;101024.28;4843175;29;20029;-78
2021/08/14 06:28:46;;;;;;;19.40;3.40;;;;;;;15.21;95.69;101024.53;4844461;29;20491;-78
2021/08/14 06:31:12;;;;;;;14.73;3.40;;;;;;;15.24;96.25;101029.50;4842168;29;20038;-79
2021/08/14 06:33:37;;;;;;;14.27;3.25;;;;;;;15.16;96.54;101010.78;4835147;29;20064;-80
2021/08/14 06:36:03;;;;;;;14.63;3.22;;;;;;;15.16;97.03;101032.47;4863205;29;20120;-78
2021/08/14 06:38:28;;;;;;;18.98;4.32;;;;;;;15.14;97.53;101029.19;4846944;29;20044;-78
2021/08/14 06:40:54;;;;;;;17.98;3.90;;;;;;;15.13;97.66;101020.22;4860214;29;20376;-78
2021/08/14 06:43:20;;;;;;;23.38;3.65;;;;;;;15.05;97.18;101009.66;4863085;29;20078;-81
2021/08/14 06:45:45;;;;;;;23.00;3.90;;;;;;;15.08;97.06;101014.63;4855122;29;20037;-78
2021/08/14 06:48:11;;;;;;;19.42;3.78;;;;;;;15.10;96.99;101017.09;4843701;29;20041;-78
2021/08/14 06:50:36;;;;;;;25.70;4.65;;;;;;;15.16;97.16;101013.50;4844601;29;20103;-78
2021/08/14 06:53:01;;;;;;;21.05;4.25;;;;;;;15.25;96.96;101014.88;4845291;29;20026;-77
2021/08/14 06:55:27;;;;;;;23.88;3.63;;;;;;;15.27;97.21;101010.06;4849220;29;20041;-78
2021/08/14 06:57:52;;;;;;;19.02;4.22;;;;;;;15.35;97.58;101006.22;4851987;29;20040;-80
2021/08/14 07:00:18;;;;;;;22.27;3.92;;;;;;;15.39;97.98;101010.97;4835932;29;20034;-78
2021/08/14 07:02:43;;;;;;;29.02;4.82;;;;;;;15.41;98.18;100999.91;4853868;29;20045;-81
2021/08/14 07:05:10;;;;;;;20.98;3.97;;;;;;;15.48;97.92;100997.94;4854303;29;20030;-78
2021/08/14 07:07:35;;;;;;;19.67;4.38;;;;;;;15.54;97.53;101001.63;4860691;29;20117;-78
2021/08/14 07:10:05;;;;;;;25.20;4.22;;;;;;;15.59;97.40;101002.59;4845337;29;20112;-79
2021/08/14 07:12:30;;;;;;;22.02;4.15;;;;;;;15.65;97.12;101000.84;4842749;29;20132;-79
2021/08/14 07:14:56;;;;;;;20.55;3.88;;;;;;;15.64;97.17;100993.78;4845241;29;20112;-80
2021/08/14 07:17:21;;;;;;;20.60;4.15;;;;;;;15.69;96.91;100996.66;4842202;29;20082;-79
2021/08/14 07:19:47;;;;;;;21.13;4.32;;;;;;;15.72;97.29;100993.50;4842093;29;20041;-80
2021/08/14 07:22:12;;;;;;;22.45;4.50;;;;;;;15.77;97.22;101004.50;4853826;29;20112;-80
2021/08/14 07:24:38;;;;;;;24.77;3.97;;;;;;;15.82;96.80;101001.91;4857674;29;20033;-80
2021/08/14 07:27:04;;;;;;;19.48;3.65;;;;;;;15.83;96.57;101006.31;4861543;29;20434;-79
2021/08/14 07:29:29;;;;;;;12.65;2.97;;;;;;;15.89;96.00;100996.41;4860353;29;20104;-80
2021/08/14 07:31:54;;;;;;;16.60;3.42;;;;;;;15.95;95.82;101009.88;4842706;29;20117;-79
2021/08/14 07:34:20;;;;;;;17.10;4.07;;;;;;;16.00;94.99;101001.06;4841680;29;20069;-79
2021/08/14 07:36:45;;;;;;;20.88;4.10;;;;;;;16.02;95.07;101000.81;4841522;29;20034;-80
2021/08/14 07:39:11;;;;;;;24.15;3.70;;;;;;;16.10;94.95;101005.94;4842961;29;20045;-80
2021/08/14 07:41:36;;;;;;;16.73;3.58;;;;;;;16.17;94.63;100999.34;4823930;29;20038;-80
2021/08/14 07:44:01;;;;;;;19.05;3.65;;;;;;;16.26;95.09;100999.00;4824242;29;20350;-79
2021/08/14 07:46:27;;;;;;;22.00;4.50;;;;;;;16.30;94.96;101001.03;4855309;29;20533;-80
2021/08/14 07:48:52;;;;;;;17.40;3.80;;;;;;;16.33;94.94;100994.31;4842684;29;20085;-80
2021/08/14 07:51:18;;;;;;;20.23;4.18;;;;;;;16.37;95.49;100990.06;4843137;29;20042;-79
2021/08/14 07:53:44;;;;;;;19.40;4.22;;;;;;;16.38;95.40;100992.53;4841948;29;20365;-81
2021/08/14 07:56:09;;;;;;;23.35;4.20;;;;;;;16.42;95.65;101001.91;4811776;29;20025;-80
2021/08/14 07:58:35;;;;;;;28.80;4.90;;;;;;;16.48;95.89;101008.28;4842372;29;20061;-80
2021/08/14 08:01:00;;;;;;;23.25;4.97;;;;;;;16.44;95.94;101001.66;4840377;29;20038;-80
2021/08/14 08:03:26;;;;;;;23.63;4.72;;;;;;;16.46;95.96;100991.41;4841251;29;20098;-80
2021/08/14 08:05:51;;;;;;;23.63;5.20;;;;;;;16.53;95.78;100996.72;4841659;29;20038;-80
2021/08/14 08:08:16;;;;;;;25.50;4.60;;;;;;;16.53;95.32;100999.44;4855350;29;20037;-80
2021/08/14 08:10:42;;;;;;;21.33;4.55;;;;;;;16.60;95.04;100994.72;4851340;29;20030;-80
2021/08/14 08:13:07;;;;;;;24.00;5.20;;;;;;;16.64;95.07;100990.47;4842204;29;20037;-79
2021/08/14 08:15:33;;;;;;;25.10;5.28;;;;;;;16.74;95.16;100996.13;4841286;29;20067;-78
2021/08/14 08:17:58;;;;;;;23.75;4.43;;;;;;;16.65;94.71;100976.66;4851866;29;20026;-83
2021/08/14 08:20:24;;;;;;;26.65;4.75;;;;;;;16.22;94.39;100911.75;5280647;23;20058;-85
2021/08/14 08:22:50;;;;;;;25.77;4.97;;;;;;;16.27;94.87;100906.47;5389127;23;20062;-84
2021/08/14 08:25:17;;;;;;;26.88;4.70;;;;;;;16.37;94.80;100906.72;4848037;29;20024;-83
2021/08/14 08:27:45;;;;;;;22.52;4.55;;;;;;;16.29;94.75;100895.34;4847226;29;20015;-86
2021/08/14 08:32:47;;;;;;;23.83;4.70;;;;;;;16.79;94.79;100933.81;4888474;24;20035;-85
2021/08/14 08:37:43;;;;;;;25.75;5.05;;;;;;;16.65;94.83;100887.00;4867094;23;20043;-83
2021/08/14 08:40:09;;;;;;;32.58;5.63;;;;;;;16.86;94.81;100903.78;4837430;29;20078;-83
2021/08/14 08:42:35;;;;;;;29.02;5.32;;;;;;;17.37;94.97;100953.81;4890025;23;20122;-83
2021/08/14 08:45:01;;;;;;;23.52;5.45;;;;;;;17.02;94.64;100899.47;4854786;29;20033;-86
2021/08/14 08:47:30;;;;;;;28.85;5.10;;;;;;;17.22;94.80;100935.28;4852456;29;20030;-82
2021/08/14 08:49:57;;;;;;;25.95;4.93;;;;;;;16.81;94.71;100882.75;4849603;29;20017;-82
2021/08/14 08:52:24;;;;;;;25.83;5.28;;;;;;;17.28;94.96;100928.84;4836339;29;20030;-78
2021/08/14 08:54:52;;;;;;;28.65;4.82;;;;;;;17.14;94.50;100901.13;4835023;29;20035;-79
2021/08/14 08:57:18;;;;;;;28.00;5.38;;;;;;;17.11;94.23;100882.56;4844765;29;20078;-81
2021/08/14 08:59:45;;;;;;;22.38;4.63;;;;;;;17.12;93.71;100875.25;4844102;29;20064;-80
2021/08/14 09:02:28;;;;;;;29.60;5.07;;;;;;;17.08;93.43;100860.47;4929275;23;20126;-82
2021/08/14 09:05:15;;;;;;;27.27;6.10;;;;;;;17.11;93.44;100840.94;4846218;29;20037;-85
2021/08/14 09:07:43;;;;;;;23.63;4.60;;;;;;;17.35;92.31;100834.38;4846707;29;20030;-85
2021/08/14 09:10:12;;;;;;;24.55;4.78;;;;;;;17.43;92.43;100835.03;4859208;29;20028;-82
2021/08/14 09:12:41;;;;;;;25.38;4.80;;;;;;;18.13;92.27;100921.78;4844940;29;20031;-82
2021/08/14 09:15:14;;;;;;;29.52;5.90;;;;;;;17.84;91.84;100867.38;4847416;29;20037;-84
2021/08/14 09:17:40;;;;;;;21.27;4.82;;;;;;;18.32;90.71;100919.66;4843341;29;20036;-82
2021/08/14 09:20:11;;;;;;;19.48;5.00;;;;;;;18.16;90.38;100866.81;4846936;29;20019;-85
2021/08/14 09:22:37;;;;;;;25.55;5.07;;;;;;;18.64;89.94;100927.22;4848120;29;20041;-85
2021/08/14 09:25:19;;;;;;;23.25;5.00;;;;;;;18.09;89.37;100841.66;4845686;29;20014;-82
2021/08/14 09:27:51;;;;;;;19.50;4.82;;;;;;;18.30;89.39;100867.31;4849388;29;20016;-85
2021/08/14 09:30:17;;;;;;;18.17;3.58;;;;;;;18.23;87.96;100875.66;4844023;29;20026;-83
2021/08/14 09:35:35;;;;;;;;;;;;;;;;;;;;;
2021/08/14 10:27:16;;;;;;;12.40;3.08;;;;;;;18.66;80.45;100805.16;5529902;23;20050;-86
2021/08/14 10:32:35;;;;;;;13.50;3.45;;;;;;;19.10;80.51;100895.97;5816194;23;20240;-79
2021/08/14 10:37:36;;;;;;;15.38;3.55;;;;;;;18.63;80.47;100811.91;5598158;23;20063;-84
2021/08/14 10:40:01;;;;;;;17.55;3.35;;;;;;;19.18;80.25;100884.66;5054049;23;20056;-83
2021/08/14 10:42:49;;;;;;;14.00;3.20;;;;;;;19.27;79.47;100900.56;4867351;29;20010;-86
2021/08/14 10:45:37;;;;;;;14.52;3.33;;;;;;;19.13;80.01;100898.22;5407860;23;20064;-84
2021/08/14 13:02:20;;;;;;;22.52;3.80;;;;;;;16.26;86.06;100777.22;5477514;24;20066;-85
2021/08/14 13:04:46;;;;;;;19.48;3.75;;;;;;;16.18;86.80;100777.53;4810805;29;20059;-85
2021/08/14 13:07:12;;;;;;;18.70;3.60;;;;;;;15.82;87.29;100724.34;4816396;29;20023;-88
2021/08/14 13:09:37;;;;;;;23.20;4.60;;;;;;;16.06;87.33;100750.44;4814253;29;20039;-87
2021/08/14 13:12:04;;;;;;;16.92;3.80;;;;;;;16.41;86.89;100763.13;4814617;29;20035;-86
2021/08/14 13:14:30;;;;;;;20.40;3.80;;;;;;;16.32;86.05;100708.34;4846106;29;20466;-84
2021/08/14 13:16:57;;;;;;;15.35;3.25;;;;;;;16.51;84.87;100713.63;4827678;29;20026;-86
2021/08/14 13:19:23;;;;;;;16.77;3.00;;;;;;;16.57;84.31;100697.19;4807496;29;20023;-88
2021/08/14 13:37:20;;;;;;;14.48;2.72;;;;;;;17.70;77.78;100707.34;5492797;24;20086;-83
2021/08/14 13:39:45;;;;;;;14.30;3.50;;;;;;;17.89;77.80;100730.53;4866009;29;20042;-84
2021/08/14 13:42:11;;;;;;;11.27;2.72;;;;;;;17.61;77.61;100669.69;4862226;29;20079;-87
2021/08/14 13:47:12;;;;;;;13.05;2.83;;;;;;;17.89;76.43;100703.31;4974943;24;20058;-81
2021/08/14 13:49:37;;;;;;;12.55;2.90;;;;;;;18.14;76.71;100719.19;5156632;23;20114;-82
2021/08/14 13:57:08;;;;;;;14.48;3.30;;;;;;;18.22;75.52;100698.88;4845752;29;20057;-83
2021/08/14 15:08:20;;;;;;;11.35;3.28;;;;;;;18.16;66.68;100722.50;5878337;24;20049;31
2021/08/14 15:13:48;;;;;;;19.50;3.30;;;;;;;17.14;73.25;100644.72;5554848;24;20066;-87
2021/08/14 15:16:14;;;;;;;21.13;3.80;;;;;;;17.18;75.01;100664.06;4848641;29;20035;-88
2021/08/14 15:18:39;;;;;;;20.20;3.70;;;;;;;17.42;74.30;100665.56;4849108;29;20054;-88
2021/08/14 15:21:07;;;;;;;11.82;2.20;;;;;;;17.41;71.42;100625.00;4847686;29;20045;-84
2021/08/14 15:23:33;;;;;;;13.05;2.60;;;;;;;18.22;69.53;100729.66;4845684;29;20038;-87
2021/08/14 15:28:25;;;;;;;14.05;2.92;;;;;;;17.85;68.20;100677.69;5517022;23;20058;-85
2021/08/14 15:30:51;;;;;;;16.02;3.58;;;;;;;17.79;68.72;100663.16;4841858;29;20045;-84
2021/08/14 15:33:19;;;;;;;14.20;3.10;;;;;;;17.78;68.63;100615.25;4841644;29;20066;-80
2021/08/14 15:35:45;;;;;;;17.50;2.85;;;;;;;17.95;68.02;100657.94;4846131;29;20021;-83
2021/08/14 15:38:10;;;;;;;17.42;3.50;;;;;;;18.13;68.70;100690.31;4863907;29;20026;-85
2021/08/14 15:40:37;;;;;;;16.73;3.08;;;;;;;17.86;69.77;100649.38;4861215;29;20029;-85
2021/08/14 15:43:03;;;;;;;15.75;2.83;;;;;;;18.13;69.26;100694.94;4852240;29;20051;-82
2021/08/14 15:45:29;;;;;;;17.65;3.35;;;;;;;17.72;69.22;100632.56;4832700;29;20110;-81
2021/08/14 15:47:54;;;;;;;18.42;2.88;;;;;;;17.58;67.57;100626.66;4832233;29;20457;-81
2021/08/14 15:50:20;;;;;;;15.80;3.95;;;;;;;18.42;67.98;100739.19;4831594;29;20033;-82
2021/08/14 15:52:46;;;;;;;16.95;3.20;;;;;;;18.45;67.99;100719.59;4833785;29;20034;-81
2021/08/14 15:55:11;;;;;;;13.65;3.10;;;;;;;17.99;68.03;100653.63;4844983;29;20113;-82
2021/08/14 15:57:37;;;;;;;16.52;3.22;;;;;;;17.79;68.12;100655.00;4851260;29;20141;-82
2021/08/14 16:00:05;;;;;;;13.38;3.25;;;;;;;17.73;68.64;100672.31;4850401;29;20030;-81
2021/08/14 16:02:30;;;;;;;17.80;3.03;;;;;;;17.43;69.37;100655.53;4848834;29;20041;-82
2021/08/14 16:04:56;;;;;;;16.67;3.08;;;;;;;17.33;70.50;100657.00;4838976;29;20434;-81
2021/08/14 16:07:21;;;;;;;18.33;4.30;;;;;;;16.96;71.12;100602.28;4813079;29;20026;-82
2021/08/14 16:09:47;;;;;;;19.00;3.42;;;;;;;16.82;71.80;100601.78;4811086;29;20459;-80